createdAt,value
2023-01-08T00:01:10.161Z,96529.78
2023-01-08T00:03:37.088Z,96527.25
2023-01-08T00:06:05.031Z,96528.38
2023-01-08T00:08:31.789Z,96537.47
2023-01-08T00:10:58.451Z,96529.03
2023-01-08T00:13:25.102Z,96531.19
2023-01-08T00:15:51.732Z,96527.97
2023-01-08T00:18:18.404Z,96534.66
2023-01-08T00:20:45.239Z,96536.66
2023-01-08T00:23:18.508Z,96541.84
2023-01-08T00:25:45.229Z,96545.63
2023-01-08T00:28:11.869Z,96539.13
2023-01-08T00:30:38.541Z,96546.91
2023-01-08T00:33:05.199Z,96544.88
2023-01-08T00:35:31.851Z,96542.75
2023-01-08T00:37:58.488Z,96536.59
2023-01-08T00:40:25.134Z,96544.41
2023-01-08T00:42:51.782Z,96529.50
2023-01-08T00:45:18.421Z,96519.69
2023-01-08T00:47:45.042Z,96508.44
2023-01-08T00:50:11.710Z,96496.81
2023-01-08T00:52:38.444Z,96499.38
2023-01-08T00:55:05.490Z,96480.09
2023-01-08T00:57:35.838Z,96468.94
2023-01-08T01:00:02.690Z,96465.28
2023-01-08T01:02:29.389Z,96446.66
2023-01-08T01:04:56.025Z,96444.00
2023-01-08T01:07:22.676Z,96440.50
2023-01-08T01:09:49.302Z,96442.50
2023-01-08T01:12:15.922Z,96426.03
2023-01-08T01:14:42.567Z,96427.53
2023-01-08T01:17:10.919Z,96430.69
2023-01-08T01:19:37.567Z,96402.41
2023-01-08T01:22:04.400Z,96399.09
2023-01-08T01:24:31.073Z,96396.94
2023-01-08T01:26:57.729Z,96392.28
2023-01-08T01:29:24.789Z,96383.78
2023-01-08T01:31:51.463Z,96377.34
2023-01-08T01:34:18.112Z,96372.81
2023-01-08T01:36:44.795Z,96372.47
2023-01-08T01:39:11.435Z,96356.50
2023-01-08T01:41:44.948Z,96350.66
2023-01-08T01:44:43.310Z,96345.03
2023-01-08T01:47:35.714Z,96351.84
2023-01-08T01:50:08.939Z,96363.31
2023-01-08T01:52:38.643Z,96363.31
2023-01-08T01:55:05.514Z,96369.47
2023-01-08T01:57:32.149Z,96366.63
2023-01-08T01:59:59.010Z,96374.06
2023-01-08T02:02:25.756Z,96360.53
2023-01-08T02:04:52.468Z,96352.16
2023-01-08T02:07:24.717Z,96361.13
2023-01-08T02:09:59.280Z,96361.31
2023-01-08T02:12:39.139Z,96350.28
2023-01-08T02:15:14.046Z,96337.94
2023-01-08T02:18:05.769Z,96339.69
2023-01-08T02:20:34.246Z,96350.31
2023-01-08T02:23:11.690Z,96351.56
2023-01-08T02:26:11.040Z,96343.00
2023-01-08T02:28:58.645Z,96333.84
2023-01-08T02:31:25.777Z,96339.53
2023-01-08T02:33:52.444Z,96351.56
2023-01-08T02:36:37.748Z,96344.78
2023-01-08T02:39:16.450Z,96358.59
2023-01-08T02:41:53.505Z,96353.63
2023-01-08T02:44:37.054Z,96344.09
2023-01-08T02:47:05.609Z,96337.25
2023-01-08T02:49:32.909Z,96346.09
2023-01-08T02:51:59.677Z,96350.78
2023-01-08T02:54:28.057Z,96364.84
2023-01-08T02:57:15.094Z,96376.19
2023-01-08T02:59:42.976Z,96381.63
2023-01-08T03:02:09.731Z,96383.38
2023-01-08T03:04:39.475Z,96395.66
2023-01-08T03:07:06.172Z,96418.69
2023-01-08T03:09:32.907Z,96414.75
2023-01-08T03:12:04.745Z,96406.34
2023-01-08T03:14:44.598Z,96415.47
2023-01-08T03:17:21.695Z,96413.72
2023-01-08T03:19:56.938Z,96401.63
2023-01-08T03:22:23.581Z,96406.88
2023-01-08T03:24:51.842Z,96409.28
2023-01-08T03:27:21.454Z,96408.44
2023-01-08T03:29:49.396Z,96409.41
2023-01-08T03:32:16.348Z,96422.69
2023-01-08T03:34:43.882Z,96410.22
2023-01-08T03:37:10.540Z,96414.38
2023-01-08T03:39:49.254Z,96413.41
2023-01-08T03:42:16.052Z,96410.75
2023-01-08T03:44:42.687Z,96400.38
2023-01-08T03:47:09.848Z,96418.59
2023-01-08T03:49:36.599Z,96422.19
2023-01-08T03:52:03.237Z,96426.56
2023-01-08T03:54:31.314Z,96425.53
2023-01-08T03:56:58.002Z,96411.19
2023-01-08T03:59:24.624Z,96409.88
2023-01-08T04:01:51.419Z,96406.72
2023-01-08T04:04:18.169Z,96399.97
2023-01-08T04:06:44.821Z,96407.28
2023-01-08T04:09:11.494Z,96413.16
2023-01-08T04:11:38.125Z,96404.53
2023-01-08T04:14:04.741Z,96395.19
2023-01-08T04:16:31.359Z,96396.31
2023-01-08T04:18:57.986Z,96396.19
2023-01-08T04:21:24.642Z,96385.59
2023-01-08T04:23:51.271Z,96384.25
2023-01-08T04:26:17.917Z,96387.22
2023-01-08T04:28:44.545Z,96389.72
2023-01-08T04:31:11.225Z,96382.38
2023-01-08T04:33:37.959Z,96398.69
2023-01-08T04:36:04.894Z,96397.53
2023-01-08T04:38:31.532Z,96384.38
2023-01-08T04:41:01.030Z,96388.56
2023-01-08T04:43:27.681Z,96394.41
2023-01-08T04:45:58.072Z,96392.81
2023-01-08T04:48:24.799Z,96399.94
2023-01-08T04:50:51.451Z,96400.13
2023-01-08T04:53:18.101Z,96389.84
2023-01-08T04:55:44.759Z,96367.78
2023-01-08T04:58:11.678Z,96337.97
2023-01-08T05:00:39.256Z,96318.59
2023-01-08T05:03:05.950Z,96305.25
2023-01-08T05:05:33.583Z,96298.25
2023-01-08T05:08:00.234Z,96295.53
2023-01-08T05:10:26.902Z,96296.19
2023-01-08T05:12:57.564Z,96312.75
2023-01-08T05:15:24.203Z,96303.78
2023-01-08T05:17:58.352Z,96315.31
2023-01-08T05:20:24.995Z,96326.16
2023-01-08T05:22:51.639Z,96308.03
2023-01-08T05:25:18.282Z,96300.34
2023-01-08T05:27:44.905Z,96307.47
2023-01-08T05:30:12.038Z,96316.94
2023-01-08T05:32:38.701Z,96325.94
2023-01-08T05:35:05.715Z,96322.47
2023-01-08T05:37:34.482Z,96312.69
2023-01-08T05:40:01.177Z,96299.13
2023-01-08T05:42:27.789Z,96290.72
2023-01-08T05:44:54.549Z,96285.47
2023-01-08T05:47:21.166Z,96284.25
2023-01-08T05:49:47.784Z,96276.34
2023-01-08T05:52:14.454Z,96278.59
2023-01-08T05:54:41.109Z,96284.56
2023-01-08T05:57:07.790Z,96297.53
2023-01-08T05:59:34.414Z,96296.81
2023-01-08T06:02:01.041Z,96307.97
2023-01-08T06:04:27.725Z,96313.47
2023-01-08T06:06:54.424Z,96325.78
2023-01-08T06:09:21.061Z,96336.00
2023-01-08T06:11:47.713Z,96349.19
2023-01-08T06:14:15.476Z,96355.69
2023-01-08T06:16:43.505Z,96362.91
2023-01-08T06:19:10.937Z,96359.59
2023-01-08T06:21:37.630Z,96358.69
2023-01-08T06:24:04.809Z,96356.72
2023-01-08T06:26:31.453Z,96351.03
2023-01-08T06:28:58.093Z,96339.66
2023-01-08T06:31:24.823Z,96334.50
2023-01-08T06:33:51.508Z,96338.00
2023-01-08T06:36:18.134Z,96332.28
2023-01-08T06:38:44.822Z,96333.13
2023-01-08T06:41:12.419Z,96343.31
2023-01-08T06:43:39.150Z,96356.81
2023-01-08T06:46:06.376Z,96360.34
2023-01-08T06:48:33.086Z,96372.50
2023-01-08T06:51:00.481Z,96383.63
2023-01-08T06:53:27.107Z,96384.34
2023-01-08T06:55:53.739Z,96379.66
2023-01-08T06:58:20.398Z,96382.50
2023-01-08T07:00:47.017Z,96391.50
2023-01-08T07:03:13.670Z,96398.84
2023-01-08T07:05:40.356Z,96397.50
2023-01-08T07:08:10.075Z,96398.50
2023-01-08T07:10:36.759Z,96393.00
2023-01-08T07:13:03.393Z,96392.34
2023-01-08T07:15:30.035Z,96392.38
2023-01-08T07:17:56.726Z,96390.53
2023-01-08T07:20:23.380Z,96384.03
2023-01-08T07:22:50.031Z,96375.84
2023-01-08T07:25:16.754Z,96377.69
2023-01-08T07:27:43.884Z,96377.53
2023-01-08T07:30:20.931Z,96389.75
2023-01-08T07:32:58.532Z,96385.28
2023-01-08T07:35:25.139Z,96373.78
2023-01-08T07:37:51.762Z,96381.38
2023-01-08T07:40:18.465Z,96384.69
2023-01-08T07:42:45.078Z,96391.50
2023-01-08T07:45:11.742Z,96387.81
2023-01-08T07:47:38.409Z,96394.13
2023-01-08T07:50:05.499Z,96397.63
2023-01-08T07:52:32.148Z,96409.63
2023-01-08T07:54:58.768Z,96409.78
2023-01-08T07:57:25.444Z,96412.28
2023-01-08T07:59:52.140Z,96407.94
2023-01-08T08:02:18.902Z,96409.28
2023-01-08T08:04:45.737Z,96396.16
2023-01-08T08:07:12.389Z,96403.09
2023-01-08T08:09:39.017Z,96393.59
2023-01-08T08:12:06.079Z,96390.81
2023-01-08T08:14:32.741Z,96381.38
2023-01-08T08:17:00.333Z,96382.03
2023-01-08T08:19:27.227Z,96396.53
2023-01-08T08:21:53.853Z,96398.00
2023-01-08T08:24:20.522Z,96392.50
2023-01-08T08:26:47.142Z,96385.34
2023-01-08T08:29:13.864Z,96404.47
2023-01-08T08:31:40.629Z,96409.13
2023-01-08T08:34:07.389Z,96416.63
2023-01-08T08:36:34.038Z,96407.13
2023-01-08T08:39:02.544Z,96393.97
2023-01-08T08:41:29.243Z,96402.44
2023-01-08T08:43:55.878Z,96396.94
2023-01-08T08:46:22.790Z,96391.09
2023-01-08T08:48:49.480Z,96386.78
2023-01-08T08:51:16.146Z,96365.56
2023-01-08T08:53:43.088Z,96366.72
2023-01-08T08:56:09.870Z,96364.03
2023-01-08T08:58:36.521Z,96363.41
2023-01-08T09:01:03.389Z,96365.91
2023-01-08T09:03:30.113Z,96365.06
2023-01-08T09:05:58.950Z,96365.25
2023-01-08T09:08:26.384Z,96371.41
2023-01-08T09:10:53.101Z,96354.16
2023-01-08T09:13:19.928Z,96351.97
2023-01-08T09:15:46.555Z,96354.09
2023-01-08T09:18:15.102Z,96369.44
2023-01-08T09:20:43.190Z,96360.47
2023-01-08T09:23:09.825Z,96348.94
2023-01-08T09:25:36.488Z,96350.03
2023-01-08T09:28:07.223Z,96350.50
2023-01-08T09:30:34.036Z,96360.81
2023-01-08T09:33:02.803Z,96335.00
2023-01-08T09:35:30.125Z,96341.34
2023-01-08T09:37:57.258Z,96333.50
2023-01-08T09:40:45.326Z,96331.63
2023-01-08T09:43:16.670Z,96335.44
2023-01-08T09:45:43.387Z,96335.13
2023-01-08T09:48:14.167Z,96339.06
2023-01-08T09:50:40.790Z,96318.91
2023-01-08T09:53:12.349Z,96327.06
2023-01-08T09:55:38.988Z,96320.56
2023-01-08T09:58:05.718Z,96330.16
2023-01-08T10:00:32.433Z,96310.72
2023-01-08T10:02:59.359Z,96302.97
2023-01-08T10:05:26.415Z,96308.09
2023-01-08T10:07:53.042Z,96303.03
2023-01-08T10:10:20.493Z,96300.31
2023-01-08T10:12:47.722Z,96314.59
2023-01-08T10:15:15.626Z,96299.72
2023-01-08T10:17:49.153Z,96289.69
2023-01-08T10:20:17.558Z,96269.63
2023-01-08T10:22:44.164Z,96279.25
2023-01-08T10:25:15.571Z,96277.44
2023-01-08T10:27:51.865Z,96267.50
2023-01-08T10:30:33.502Z,96272.91
2023-01-08T10:33:05.030Z,96263.00
2023-01-08T10:35:35.821Z,96250.78
2023-01-08T10:38:02.522Z,96231.06
2023-01-08T10:40:39.879Z,96237.28
2023-01-08T10:43:15.969Z,96229.38
2023-01-08T10:45:42.899Z,96211.53
2023-01-08T10:48:16.816Z,96208.69
2023-01-08T10:50:43.447Z,96197.06
2023-01-08T10:53:28.488Z,96176.97
2023-01-08T10:56:01.866Z,96178.63
2023-01-08T10:58:29.110Z,96170.25
2023-01-08T11:00:55.905Z,96163.00
2023-01-08T11:03:30.989Z,96151.31
2023-01-08T11:05:57.653Z,96145.19
2023-01-08T11:08:24.321Z,96119.13
2023-01-08T11:10:58.387Z,96117.91
2023-01-08T11:13:25.307Z,96126.28
2023-01-08T11:16:07.347Z,96116.69
2023-01-08T11:18:48.212Z,96137.59
2023-01-08T11:21:23.118Z,96141.88
2023-01-08T11:24:10.503Z,96153.03
2023-01-08T11:26:37.187Z,96166.53
2023-01-08T11:29:15.741Z,96149.00
2023-01-08T11:31:51.418Z,96139.69
2023-01-08T11:34:20.974Z,96132.09
2023-01-08T11:36:51.106Z,96146.94
2023-01-08T11:39:17.838Z,96156.63
2023-01-08T11:41:50.618Z,96180.59
2023-01-08T11:44:21.230Z,96168.47
2023-01-08T11:47:43.222Z,96165.66
2023-01-08T11:50:23.746Z,96184.03
2023-01-08T11:53:23.585Z,96180.50
2023-01-08T11:56:15.869Z,96163.97
2023-01-08T11:58:54.745Z,96156.56
2023-01-08T12:01:39.835Z,96157.59
2023-01-08T12:04:06.384Z,96132.25
2023-01-08T12:06:54.851Z,96125.44
2023-01-08T12:09:36.649Z,96131.56
2023-01-08T12:12:06.530Z,96128.34
2023-01-08T12:14:43.154Z,96125.97
2023-01-08T12:17:19.877Z,96124.25
2023-01-08T12:19:59.585Z,96106.84
2023-01-08T12:22:33.843Z,96110.72
2023-01-08T12:25:24.473Z,96092.25
2023-01-08T12:28:20.463Z,96102.69
2023-01-08T12:31:05.673Z,96091.22
2023-01-08T12:33:57.183Z,96091.97
2023-01-08T12:36:34.246Z,96096.31
2023-01-08T12:39:03.223Z,96085.63
2023-01-08T12:41:31.046Z,96083.59
2023-01-08T12:44:04.264Z,96078.91
2023-01-08T12:46:33.111Z,96079.63
2023-01-08T12:48:59.762Z,96083.69
2023-01-08T12:51:34.912Z,96077.63
2023-01-08T12:54:17.983Z,96070.16
2023-01-08T12:56:59.735Z,96051.22
2023-01-08T12:59:41.725Z,96047.59
2023-01-08T13:02:34.204Z,96046.53
2023-01-08T13:05:19.651Z,96023.16
2023-01-08T13:07:51.298Z,96016.09
2023-01-08T13:10:37.575Z,96008.41
2023-01-08T13:13:04.992Z,95983.06
2023-01-08T13:15:31.861Z,95973.94
2023-01-08T13:18:04.716Z,95975.88
2023-01-08T13:20:31.832Z,95967.06
2023-01-08T13:23:00.408Z,95964.63
2023-01-08T13:25:29.466Z,95934.47
2023-01-08T13:27:56.153Z,95944.44
2023-01-08T13:30:42.119Z,95932.38
2023-01-08T13:33:37.687Z,95933.00
2023-01-08T13:36:13.850Z,95929.75
2023-01-08T13:38:40.901Z,95921.31
2023-01-08T13:41:29.053Z,95921.72
2023-01-08T13:44:06.359Z,95929.53
2023-01-08T13:46:34.965Z,95923.16
2023-01-08T13:49:06.345Z,95922.56
2023-01-08T13:51:42.641Z,95915.22
2023-01-08T13:54:12.167Z,95913.13
2023-01-08T13:56:40.012Z,95912.22
2023-01-08T13:59:06.663Z,95907.59
2023-01-08T14:01:33.371Z,95911.47
2023-01-08T14:04:00.088Z,95910.50
2023-01-08T14:06:27.223Z,95903.88
2023-01-08T14:09:01.037Z,95901.94
2023-01-08T14:11:29.328Z,95901.38
2023-01-08T14:13:56.232Z,95902.88
2023-01-08T14:16:22.917Z,95891.75
2023-01-08T14:18:49.597Z,95887.22
2023-01-08T14:21:19.938Z,95883.72
2023-01-08T14:23:47.086Z,95890.25
2023-01-08T14:26:25.698Z,95884.28
2023-01-08T14:28:52.609Z,95885.22
2023-01-08T14:31:23.929Z,95881.38
2023-01-08T14:33:53.083Z,95886.50
2023-01-08T14:36:19.845Z,95874.75
2023-01-08T14:38:46.570Z,95868.03
2023-01-08T14:41:13.605Z,95853.66
2023-01-08T14:43:45.701Z,95869.63
2023-01-08T14:46:21.617Z,95865.28
2023-01-08T14:48:48.242Z,95859.13
2023-01-08T14:51:15.883Z,95870.03
2023-01-08T14:53:50.170Z,95874.94
2023-01-08T14:56:22.686Z,95870.59
2023-01-08T14:58:49.313Z,95856.22
2023-01-08T15:01:20.838Z,95852.41
2023-01-08T15:03:48.311Z,95840.09
2023-01-08T15:06:28.480Z,95845.72
2023-01-08T15:08:55.122Z,95836.16
2023-01-08T15:11:26.453Z,95827.28
2023-01-08T15:13:53.506Z,95830.13
2023-01-08T15:16:27.402Z,95829.19
2023-01-08T15:19:00.360Z,95812.44
2023-01-08T15:21:26.987Z,95797.72
2023-01-08T15:23:54.679Z,95811.81
2023-01-08T15:26:21.500Z,95811.19
2023-01-08T15:28:56.064Z,95808.41
2023-01-08T15:31:30.084Z,95802.41
2023-01-08T15:33:57.135Z,95804.38
2023-01-08T15:36:23.918Z,95798.97
2023-01-08T15:38:50.603Z,95816.56
2023-01-08T15:41:21.416Z,95802.13
2023-01-08T15:43:50.040Z,95797.72
2023-01-08T15:46:18.040Z,95781.28
2023-01-08T15:48:47.206Z,95795.06
2023-01-08T15:51:13.859Z,95791.94
2023-01-08T15:53:40.476Z,95788.53
2023-01-08T15:56:07.231Z,95786.88
2023-01-08T15:58:33.866Z,95785.44
2023-01-08T16:01:00.542Z,95774.09
2023-01-08T16:03:30.526Z,95764.47
2023-01-08T16:05:57.147Z,95747.44
2023-01-08T16:08:23.934Z,95736.66
2023-01-08T16:10:53.570Z,95733.81
2023-01-08T16:13:20.446Z,95712.00
2023-01-08T16:15:47.133Z,95719.97
2023-01-08T16:18:13.875Z,95731.66
2023-01-08T16:20:40.566Z,95710.16
2023-01-08T16:23:07.240Z,95707.50
2023-01-08T16:25:33.886Z,95688.44
2023-01-08T16:28:01.851Z,95697.06
2023-01-08T16:30:28.490Z,95689.97
2023-01-08T16:32:55.403Z,95688.31
2023-01-08T16:35:22.081Z,95703.97
2023-01-08T16:37:48.798Z,95699.66
2023-01-08T16:40:15.492Z,95710.63
2023-01-08T16:42:42.141Z,95710.00
2023-01-08T16:45:09.124Z,95719.06
2023-01-08T16:47:38.944Z,95733.22
2023-01-08T16:50:05.908Z,95725.81
2023-01-08T16:52:32.565Z,95735.34
2023-01-08T16:54:59.218Z,95718.19
2023-01-08T16:57:25.845Z,95717.00
2023-01-08T16:59:52.985Z,95720.91
2023-01-08T17:02:19.611Z,95731.56
2023-01-08T17:04:46.731Z,95744.19
2023-01-08T17:07:13.673Z,95752.50
2023-01-08T17:09:40.377Z,95749.94
2023-01-08T17:12:07.089Z,95745.34
2023-01-08T17:14:33.731Z,95739.91
2023-01-08T17:17:00.350Z,95738.00
2023-01-08T17:19:27.395Z,95746.66
2023-01-08T17:21:54.113Z,95742.88
2023-01-08T17:24:20.734Z,95738.63
2023-01-08T17:26:47.409Z,95740.66
2023-01-08T17:29:14.155Z,95741.28
2023-01-08T17:31:40.853Z,95740.50
2023-01-08T17:34:08.127Z,95734.69
2023-01-08T17:36:34.988Z,95738.13
2023-01-08T17:39:01.631Z,95731.75
2023-01-08T17:41:28.812Z,95720.00
2023-01-08T17:43:55.468Z,95726.31
2023-01-08T17:46:22.115Z,95724.53
2023-01-08T17:48:48.779Z,95719.38
2023-01-08T17:51:15.437Z,95711.72
2023-01-08T17:53:42.081Z,95700.00
2023-01-08T17:56:08.796Z,95697.44
2023-01-08T17:58:35.443Z,95694.06
2023-01-08T18:01:02.405Z,95692.44
2023-01-08T18:03:29.137Z,95683.38
2023-01-08T18:05:55.826Z,95685.34
2023-01-08T18:08:22.499Z,95687.03
2023-01-08T18:10:49.194Z,95693.16
2023-01-08T18:13:15.850Z,95694.19
2023-01-08T18:15:42.502Z,95684.25
2023-01-08T18:18:09.121Z,95682.22
2023-01-08T18:20:35.759Z,95675.22
2023-01-08T18:23:02.394Z,95666.56
2023-01-08T18:25:29.061Z,95651.22
2023-01-08T18:27:55.699Z,95649.00
2023-01-08T18:30:22.948Z,95646.34
2023-01-08T18:32:49.769Z,95643.88
2023-01-08T18:35:16.401Z,95643.44
2023-01-08T18:37:43.016Z,95634.41
2023-01-08T18:40:10.416Z,95639.09
2023-01-08T18:42:37.060Z,95647.41
2023-01-08T18:45:03.859Z,95651.41
2023-01-08T18:47:30.535Z,95648.41
2023-01-08T18:49:57.272Z,95644.50
2023-01-08T18:52:23.984Z,95641.19
2023-01-08T18:54:50.988Z,95653.31
2023-01-08T18:57:17.661Z,95655.97
2023-01-08T18:59:44.740Z,95654.53
2023-01-08T19:02:21.089Z,95667.91
2023-01-08T19:04:48.078Z,95654.59
2023-01-08T19:07:15.509Z,95637.91
2023-01-08T19:09:42.142Z,95643.16
2023-01-08T19:12:08.824Z,95626.78
2023-01-08T19:14:35.458Z,95623.94
2023-01-08T19:17:02.107Z,95627.25
2023-01-08T19:19:29.376Z,95619.81
2023-01-08T19:21:56.086Z,95615.31
2023-01-08T19:24:22.971Z,95618.38
2023-01-08T19:26:49.811Z,95616.97
2023-01-08T19:29:16.434Z,95606.13
2023-01-08T19:31:43.190Z,95600.63
2023-01-08T19:34:09.923Z,95602.00
2023-01-08T19:36:36.691Z,95604.66
2023-01-08T19:39:03.339Z,95620.22
2023-01-08T19:41:29.963Z,95620.72
2023-01-08T19:43:56.699Z,95625.09
2023-01-08T19:46:23.619Z,95633.41
2023-01-08T19:48:50.536Z,95623.09
2023-01-08T19:51:17.161Z,95649.38
2023-01-08T19:53:43.826Z,95662.06
2023-01-08T19:56:11.855Z,95681.16
2023-01-08T19:58:38.521Z,95687.31
2023-01-08T20:01:15.991Z,95688.56
2023-01-08T20:03:42.679Z,95692.38
2023-01-08T20:06:20.353Z,95683.31
2023-01-08T20:08:47.620Z,95667.25
2023-01-08T20:11:14.838Z,95678.09
2023-01-08T20:13:41.561Z,95686.66
2023-01-08T20:16:09.456Z,95681.41
2023-01-08T20:18:36.136Z,95665.34
2023-01-08T20:21:18.584Z,95653.19
2023-01-08T20:23:45.334Z,95642.03
2023-01-08T20:26:16.534Z,95649.09
2023-01-08T20:28:43.377Z,95644.66
2023-01-08T20:31:11.736Z,95652.53
2023-01-08T20:33:38.871Z,95650.84
2023-01-08T20:36:16.765Z,95666.91
2023-01-08T20:38:43.491Z,95675.50
2023-01-08T20:41:10.321Z,95644.75
2023-01-08T20:43:38.331Z,95642.34
2023-01-08T20:46:05.091Z,95653.00
2023-01-08T20:48:34.305Z,95639.94
2023-01-08T20:51:04.110Z,95616.63
2023-01-08T20:53:31.027Z,95624.34
2023-01-08T20:55:58.445Z,95639.69
2023-01-08T20:58:25.103Z,95638.41
2023-01-08T21:00:51.904Z,95611.47
2023-01-08T21:03:18.573Z,95588.81
2023-01-08T21:05:45.211Z,95600.97
2023-01-08T21:08:11.854Z,95627.00
2023-01-08T21:10:38.536Z,95625.16
2023-01-08T21:13:05.167Z,95612.75
2023-01-08T21:15:31.854Z,95613.19
2023-01-08T21:17:58.500Z,95607.63
2023-01-08T21:20:25.299Z,95599.13
2023-01-08T21:22:52.173Z,95591.25
2023-01-08T21:25:18.922Z,95594.09
2023-01-08T21:27:45.600Z,95602.16
2023-01-08T21:30:12.468Z,95589.22
2023-01-08T21:32:39.139Z,95601.59
2023-01-08T21:35:06.216Z,95599.88
2023-01-08T21:37:32.848Z,95601.44
2023-01-08T21:39:59.509Z,95620.41
2023-01-08T21:42:26.191Z,95614.22
2023-01-08T21:44:52.855Z,95587.47
2023-01-08T21:47:20.012Z,95617.59
2023-01-08T21:49:46.707Z,95576.44
2023-01-08T21:52:13.412Z,95578.66
2023-01-08T21:54:40.107Z,95602.47
2023-01-08T21:57:07.128Z,95595.88
2023-01-08T21:59:34.095Z,95595.69
2023-01-08T22:02:01.299Z,95584.69
2023-01-08T22:04:27.985Z,95573.31
2023-01-08T22:06:54.833Z,95589.06
2023-01-08T22:09:21.569Z,95587.13
2023-01-08T22:11:48.244Z,95597.53
2023-01-08T22:14:14.896Z,95609.13
2023-01-08T22:16:41.859Z,95605.38
2023-01-08T22:19:09.933Z,95619.69
2023-01-08T22:21:36.592Z,95610.16
2023-01-08T22:24:03.251Z,95603.31
2023-01-08T22:26:29.918Z,95591.00
2023-01-08T22:28:56.814Z,95584.78
2023-01-08T22:31:23.573Z,95593.22
2023-01-08T22:33:53.733Z,95572.13
2023-01-08T22:36:20.385Z,95570.84
2023-01-08T22:38:47.059Z,95589.38
2023-01-08T22:41:21.449Z,95589.09
2023-01-08T22:43:48.242Z,95587.53
2023-01-08T22:46:15.736Z,95612.28
2023-01-08T22:48:43.067Z,95595.50
2023-01-08T22:51:09.895Z,95594.78
2023-01-08T22:53:36.552Z,95594.78
2023-01-08T22:56:05.951Z,95589.66
2023-01-08T22:58:32.596Z,95540.91
2023-01-08T23:00:59.284Z,95596.13
2023-01-08T23:03:29.213Z,95564.28
2023-01-08T23:06:02.704Z,95573.88
2023-01-08T23:08:29.689Z,95563.44
2023-01-08T23:10:56.840Z,95594.38
2023-01-08T23:13:23.833Z,95587.34
2023-01-08T23:15:50.476Z,95588.63
2023-01-08T23:18:17.109Z,95585.88
2023-01-08T23:20:43.747Z,95597.50
2023-01-08T23:23:10.445Z,95569.56
2023-01-08T23:25:37.094Z,95587.16
2023-01-08T23:28:03.768Z,95590.19
2023-01-08T23:30:30.426Z,95578.34
2023-01-08T23:32:59.888Z,95577.63
2023-01-08T23:35:26.603Z,95585.97
2023-01-08T23:37:53.282Z,95599.25
2023-01-08T23:40:19.958Z,95575.91
2023-01-08T23:42:46.579Z,95576.84
2023-01-08T23:45:13.180Z,95598.09
2023-01-08T23:47:39.806Z,95589.19
2023-01-08T23:50:06.988Z,95569.47
2023-01-08T23:52:33.644Z,95560.19
2023-01-08T23:55:00.303Z,95582.25
2023-01-08T23:57:26.952Z,95597.22
2023-01-08T23:59:56.368Z,95576.69
